Time;durP1;ratioP1;P1;durP2;ratioP2;P2;SDS_P1;SDS_P2;PMS_P1;PMS_P2;Temp;Humidity;BMP_temperature;BMP_pressure;BME280_temperature;BME280_humidity;BME280_pressure;Samples;Min_cycle;Max_cycle;Signal;HPM_P1;HPM_P2
2021/07/09 00:02:12;;;;;;;;;;;;;;;28.37;49.81;100161.66;5074037;28;19950;-75
2021/07/09 00:04:41;;;;;;;;;;;;;;;28.30;49.98;100158.91;5073557;28;19960;-74
2021/07/09 00:07:09;;;;;;;;;;;;;;;28.25;49.62;100161.41;5073750;28;19947;-74
2021/07/09 00:09:38;;;;;;;;;;;;;;;28.21;49.75;100152.75;5073445;28;19959;-74
2021/07/09 00:12:07;;;;;;;;;;;;;;;28.20;50.12;100155.72;5073651;28;20324;-74
2021/07/09 00:14:36;;;;;;;;;;;;;;;28.21;49.71;100146.44;5055505;28;20369;-74
2021/07/09 00:17:05;;;;;;;;;;;;;;;28.18;49.90;100152.31;5073702;28;19925;-75
2021/07/09 00:19:33;;;;;;;;;;;;;;;28.15;49.93;100141.78;5073173;28;19924;-75
2021/07/09 00:22:01;;;;;;;;;;;;;;;28.14;49.92;100137.34;5073552;28;20388;-75
2021/07/09 00:24:30;;;;;;;;;;;;;;;28.11;50.02;100143.25;5073151;28;19947;-76
2021/07/09 00:27:03;;;;;;;;;;;;;;;28.07;50.07;100136.47;5055841;28;19924;-82
2021/07/09 00:29:31;;;;;;;;;;;;;;;28.04;50.20;100139.66;5073132;28;19928;-81
2021/07/09 00:31:59;;;;;;;;;;;;;;;28.02;50.22;100144.50;5073434;28;19931;-81
2021/07/09 00:34:27;;;;;;;;;;;;;;;27.93;50.70;100133.72;5073130;28;20304;-80
2021/07/09 00:36:55;;;;;;;;;;;;;;;27.89;50.64;100134.34;5073316;28;19999;-79
2021/07/09 00:39:23;;;;;;;;;;;;;;;27.87;50.82;100134.56;5073376;28;19947;-77
2021/07/09 00:41:51;;;;;;;;;;;;;;;27.89;50.69;100127.00;5073540;28;20399;-75
2021/07/09 00:44:20;;;;;;;;;;;;;;;27.74;51.23;100129.06;5073470;28;19925;-75
2021/07/09 00:46:51;;;;;;;;;;;;;;;27.79;50.84;100129.25;5073023;28;19928;-75
2021/07/09 00:49:20;;;;;;;;;;;;;;;27.82;51.05;100133.50;5073292;28;19970;-77
2021/07/09 00:51:49;;;;;;;;;;;;;;;27.66;51.45;100140.19;5073118;28;19928;-76
2021/07/09 00:54:17;;;;;;;;;;;;;;;27.60;51.60;100140.97;5073383;28;19928;-77
2021/07/09 00:56:46;;;;;;;;;;;;;;;27.56;51.84;100142.44;5072944;28;20776;-76
2021/07/09 00:59:21;;;;;;;;;;;;;;;27.54;51.90;100141.81;5073307;28;19978;-76
2021/07/09 01:01:51;;;;;;;;;;;;;;;27.46;51.81;100134.63;5072823;28;19930;-76
2021/07/09 01:04:20;;;;;;;;;;;;;;;27.40;52.10;100132.69;5073442;28;19924;-80
2021/07/09 01:06:48;;;;;;;;;;;;;;;27.47;51.79;100138.19;5072929;28;20331;-81
2021/07/09 01:09:16;;;;;;;;;;;;;;;27.46;51.88;100140.09;5073140;28;19950;-80
2021/07/09 01:11:45;;;;;;;;;;;;;;;27.50;51.83;100138.63;5072811;28;20281;-80
2021/07/09 01:14:13;;;;;;;;;;;;;;;27.56;51.57;100147.94;5073352;28;19925;-86
2021/07/09 01:16:41;;;;;;;;;;;;;;;27.42;51.91;100137.97;5072770;28;19970;-86
2021/07/09 01:19:14;;;;;;;;;;;;;;;27.57;50.87;100139.50;5073149;28;19924;-86
2021/07/09 01:21:42;;;;;;;;;;;;;;;27.52;51.18;100136.53;5072735;28;19978;-86
2021/07/09 01:24:12;;;;;;;;;;;;;;;27.46;51.36;100131.88;5073121;28;19978;-86
2021/07/09 01:26:40;;;;;;;;;;;;;;;27.50;51.01;100140.50;5072661;28;20327;-86
2021/07/09 01:29:09;;;;;;;;;;;;;;;27.31;51.64;100134.78;5072745;28;19978;-86
2021/07/09 01:31:38;;;;;;;;;;;;;;;27.33;51.60;100132.69;5072440;28;19933;-86
2021/07/09 01:34:06;;;;;;;;;;;;;;;27.32;51.09;100130.16;5072899;28;20023;-75
2021/07/09 01:36:34;;;;;;;;;;;;;;;27.33;51.22;100129.09;5054700;28;19925;-75
2021/07/09 01:39:02;;;;;;;;;;;;;;;27.33;50.76;100129.94;5072870;28;19924;-80
2021/07/09 01:41:31;;;;;;;;;;;;;;;27.34;50.52;100137.09;5056897;28;20381;-80
2021/07/09 01:43:59;;;;;;;;;;;;;;;27.31;50.60;100134.78;5076591;28;20428;-81
2021/07/09 01:46:27;;;;;;;;;;;;;;;27.33;50.46;100146.38;5076413;28;20023;-81
2021/07/09 01:48:55;;;;;;;;;;;;;;;27.36;50.34;100143.22;5076530;28;20281;-82
2021/07/09 01:51:24;;;;;;;;;;;;;;;27.22;50.72;100144.22;5076463;28;19924;-82
2021/07/09 01:53:52;;;;;;;;;;;;;;;27.22;50.96;100137.91;5075786;28;19924;-83
2021/07/09 01:56:19;;;;;;;;;;;;;;;27.10;51.12;100132.13;5076477;28;19931;-82
2021/07/09 01:58:49;;;;;;;;;;;;;;;27.02;51.31;100138.63;5075903;28;20338;-83
2021/07/09 02:01:17;;;;;;;;;;;;;;;27.08;51.08;100136.97;5076327;28;20369;-77
2021/07/09 02:03:45;;;;;;;;;;;;;;;26.94;51.49;100144.22;5075890;28;20459;-74
2021/07/09 02:06:13;;;;;;;;;;;;;;;27.01;51.45;100145.09;5058388;28;19924;-75
2021/07/09 02:08:41;;;;;;;;;;;;;;;26.96;51.62;100138.56;5075661;28;19924;-74
2021/07/09 02:11:09;;;;;;;;;;;;;;;27.01;51.44;100145.09;5076148;28;19925;-74
2021/07/09 02:13:37;;;;;;;;;;;;;;;26.94;51.84;100143.38;5075925;28;19974;-74
2021/07/09 02:16:06;;;;;;;;;;;;;;;26.92;51.76;100140.81;5075948;28;20019;-77
2021/07/09 02:18:35;;;;;;;;;;;;;;;27.06;51.40;100137.16;5075646;28;20377;-75
2021/07/09 02:21:03;;;;;;;;;;;;;;;26.99;51.70;100129.94;5075774;28;20363;-74
2021/07/09 02:23:30;;;;;;;;;;;;;;;27.02;51.37;100122.22;5075924;28;19931;-76
2021/07/09 02:25:59;;;;;;;;;;;;;;;26.94;51.55;100132.44;5075969;28;19930;-77
2021/07/09 02:28:26;;;;;;;;;;;;;;;26.84;52.11;100126.47;5075849;28;19924;-76
2021/07/09 02:30:54;;;;;;;;;;;;;;;26.97;51.80;100123.81;5075308;28;19931;-75
2021/07/09 02:33:24;;;;;;;;;;;;;;;27.04;51.46;100122.84;5075489;28;19963;-76
2021/07/09 02:35:52;;;;;;;;;;;;;;;27.00;51.56;100132.47;5075248;28;19928;-76
2021/07/09 02:38:20;;;;;;;;;;;;;;;27.00;51.70;100134.34;5075504;28;20362;-75
2021/07/09 02:40:48;;;;;;;;;;;;;;;27.06;51.57;100130.84;5075316;28;19928;-74
2021/07/09 02:43:16;;;;;;;;;;;;;;;27.09;51.25;100130.44;5075656;28;19925;-78
2021/07/09 02:45:45;;;;;;;;;;;;;;;26.93;51.72;100125.28;5075296;28;19928;-78
2021/07/09 02:48:16;;;;;;;;;;;;;;;26.91;51.91;100125.44;5075594;28;20339;-86
2021/07/09 02:50:46;;;;;;;;;;;;;;;26.88;51.84;100123.13;5075008;28;19970;-86
2021/07/09 02:53:14;;;;;;;;;;;;;;;26.90;51.92;100114.72;5075138;28;20285;-86
2021/07/09 02:55:42;;;;;;;;;;;;;;;26.93;51.88;100126.13;5075030;28;19924;-85
2021/07/09 02:58:11;;;;;;;;;;;;;;;26.97;51.61;100121.06;5075141;28;20350;-86
2021/07/09 03:00:38;;;;;;;;;;;;;;;26.88;52.26;100122.28;5075022;28;19935;-87
2021/07/09 03:03:06;;;;;;;;;;;;;;;26.78;52.43;100123.50;5075355;28;19925;-85
2021/07/09 03:05:34;;;;;;;;;;;;;;;26.90;52.17;100122.94;5075097;28;20003;-86
2021/07/09 03:08:04;;;;;;;;;;;;;;;26.89;51.98;100118.50;5075303;28;19924;-78
2021/07/09 03:10:32;;;;;;;;;;;;;;;27.00;51.89;100112.47;5074974;28;19978;-78
2021/07/09 03:13:00;;;;;;;;;;;;;;;27.06;51.60;100114.44;5074877;28;19931;-78
2021/07/09 03:15:28;;;;;;;;;;;;;;;27.05;51.48;100110.00;5057073;28;19949;-77
2021/07/09 03:17:56;;;;;;;;;;;;;;;26.94;52.08;100110.53;5074596;28;19928;-85
2021/07/09 03:20:24;;;;;;;;;;;;;;;26.93;51.94;100115.19;5074952;28;19978;-86
2021/07/09 03:22:52;;;;;;;;;;;;;;;26.73;52.64;100117.78;5074323;28;20374;-86
2021/07/09 03:25:21;;;;;;;;;;;;;;;26.62;53.08;100123.78;5075157;28;19931;-83
2021/07/09 03:27:49;;;;;;;;;;;;;;;26.58;53.01;100121.66;5056115;28;20389;-83
2021/07/09 03:30:19;;;;;;;;;;;;;;;26.47;53.58;100126.63;5074918;28;19928;-81
2021/07/09 03:32:47;;;;;;;;;;;;;;;26.43;53.78;100124.47;5074191;28;19970;-83
2021/07/09 03:35:15;;;;;;;;;;;;;;;26.52;53.63;100126.88;5074514;28;19975;-82
2021/07/09 03:37:43;;;;;;;;;;;;;;;26.61;53.35;100122.09;5074030;28;19968;-83
2021/07/09 03:40:11;;;;;;;;;;;;;;;26.52;53.83;100129.59;5074237;28;19931;-74
2021/07/09 03:42:41;;;;;;;;;;;;;;;26.56;53.58;100132.81;5073699;28;19924;-84
2021/07/09 03:45:09;;;;;;;;;;;;;;;26.78;52.94;100134.44;5074063;28;20027;-81
2021/07/09 03:47:37;;;;;;;;;;;;;;;26.75;53.43;100128.53;5073603;28;19931;-77
2021/07/09 03:50:06;;;;;;;;;;;;;;;26.66;53.48;100130.56;5073949;28;19932;-80
2021/07/09 03:52:34;;;;;;;;;;;;;;;26.71;53.38;100122.59;5074046;28;19978;-77
2021/07/09 03:55:02;;;;;;;;;;;;;;;26.82;53.43;100119.28;5073874;28;19936;-78
2021/07/09 03:57:30;;;;;;;;;;;;;;;26.95;52.96;100123.19;5074002;28;19925;-78
2021/07/09 03:59:59;;;;;;;;;;;;;;;27.05;52.88;100123.69;5073577;28;19929;-75
2021/07/09 04:02:27;;;;;;;;;;;;;;;27.01;53.11;100125.09;5073210;28;19925;-76
2021/07/09 04:04:55;;;;;;;;;;;;;;;27.16;52.52;100125.00;5072544;28;19925;-76
2021/07/09 04:07:23;;;;;;;;;;;;;;;27.26;52.74;100128.22;5073083;28;19924;-77
2021/07/09 04:09:51;;;;;;;;;;;;;;;28.21;50.29;100135.47;5072878;28;19924;-74
2021/07/09 04:12:19;;;;;;;;;;;;;;;29.11;48.02;100125.69;5073517;28;20339;-81
2021/07/09 04:14:47;;;;;;;;;;;;;;;29.60;46.27;100127.84;5073570;28;19971;-84
2021/07/09 04:17:18;;;;;;;;;;;;;;;30.05;45.19;100126.97;5073746;28;20055;-76
2021/07/09 04:19:49;;;;;;;;;;;;;;;28.92;48.24;100130.19;5073306;28;19929;-75
2021/07/09 04:22:16;;;;;;;;;;;;;;;29.17;48.03;100132.25;5073917;28;19947;-75
2021/07/09 04:24:45;;;;;;;;;;;;;;;29.31;47.59;100136.63;5073013;28;19931;-83
2021/07/09 04:27:13;;;;;;;;;;;;;;;29.76;46.79;100142.16;5073070;28;19955;-88
2021/07/09 04:29:41;;;;;;;;;;;;;;;29.59;47.08;100144.56;5072943;28;19931;-86
2021/07/09 04:32:10;;;;;;;;;;;;;;;29.12;47.95;100143.03;5073126;28;19928;-79
2021/07/09 04:34:39;;;;;;;;;;;;;;;28.92;48.47;100138.41;5072951;28;19928;-82
2021/07/09 04:37:08;;;;;;;;;;;;;;;29.80;46.99;100137.91;5073047;28;19967;-80
2021/07/09 04:39:38;;;;;;;;;;;;;;;30.56;44.98;100124.03;5073680;28;19950;-73
2021/07/09 04:42:06;;;;;;;;;;;;;;;31.45;42.84;100128.19;5073422;28;19924;-73
2021/07/09 04:44:35;;;;;;;;;;;;;;;30.76;44.33;100119.19;5073286;28;19951;-74
2021/07/09 04:47:05;;;;;;;;;;;;;;;30.09;46.03;100115.31;5077864;28;19931;-70
2021/07/09 04:49:33;;;;;;;;;;;;;;;30.41;45.43;100123.53;5073475;28;19939;-70
2021/07/09 04:52:03;;;;;;;;;;;;;;;30.51;45.02;100121.13;5073007;28;19924;-76
2021/07/09 04:54:31;;;;;;;;;;;;;;;30.00;47.61;100126.78;5073336;28;19924;-80
2021/07/09 04:56:59;;;;;;;;;;;;;;;30.63;48.01;100108.31;5072907;28;19964;-81
2021/07/09 04:59:30;;;;;;;;;;;;;;;31.04;49.15;100117.84;5073497;28;19956;-73
2021/07/09 05:01:58;;;;;;;;;;;;;;;30.22;50.93;100132.81;5072931;28;19951;-71
2021/07/09 05:04:26;;;;;;;;;;;;;;;29.29;54.92;100134.09;5073246;28;19925;-81
2021/07/09 05:06:54;;;;;;;;;;;;;;;28.79;55.68;100127.44;5072464;28;19947;-83
2021/07/09 05:09:23;;;;;;;;;;;;;;;28.54;55.47;100135.47;5073029;28;19925;-75
2021/07/09 05:11:52;;;;;;;;;;;;;;;28.04;56.31;100134.16;5072633;28;19932;-76
2021/07/09 05:14:20;;;;;;;;;;;;;;;28.04;56.26;100134.16;5073333;28;19951;-80
2021/07/09 05:16:48;;;;;;;;;;;;;;;27.76;57.93;100139.81;5075734;28;20369;-80
2021/07/09 05:19:18;;;;;;;;;;;;;;;27.58;59.55;100140.34;5077004;28;19931;-73
2021/07/09 05:21:46;;;;;;;;;;;;;;;27.75;57.68;100147.19;5076924;28;19931;-73
2021/07/09 05:24:15;;;;;;;;;;;;;;;27.80;57.22;100152.91;5077302;28;20316;-73
2021/07/09 05:26:48;;;;;;;;;;;;;;;27.92;58.40;100153.97;5077039;28;19924;-74
2021/07/09 05:29:18;;;;;;;;;;;;;;;29.47;53.91;100147.13;5076947;28;20022;-72
2021/07/09 05:31:46;;;;;;;;;;;;;;;31.00;49.53;100138.66;5076516;28;20381;-72
2021/07/09 05:34:15;;;;;;;;;;;;;;;31.62;47.83;100134.75;5076734;28;20289;-73
2021/07/09 05:36:43;;;;;;;;;;;;;;;32.50;45.76;100140.69;5076672;28;19924;-73
2021/07/09 05:39:12;;;;;;;;;;;;;;;33.33;42.89;100140.44;5076778;28;19924;-73
2021/07/09 05:41:40;;;;;;;;;;;;;;;33.87;40.95;100138.22;5076744;28;19928;-72
2021/07/09 05:44:09;;;;;;;;;;;;;;;33.95;40.79;100131.47;5076463;28;19924;-73
2021/07/09 05:46:37;;;;;;;;;;;;;;;34.22;41.12;100126.16;5076675;28;19970;-73
2021/07/09 05:49:05;;;;;;;;;;;;;;;34.82;38.86;100120.78;5092079;28;20442;-73
2021/07/09 05:51:35;;;;;;;;;;;;;;;34.98;37.86;100136.56;5076499;28;19970;-73
2021/07/09 05:54:03;;;;;;;;;;;;;;;34.76;37.44;100127.34;5076238;28;20265;-73
2021/07/09 05:56:31;;;;;;;;;;;;;;;34.98;37.80;100135.72;5076364;28;19986;-73
2021/07/09 05:58:59;;;;;;;;;;;;;;;34.60;38.20;100142.88;5076050;28;19924;-72
2021/07/09 06:01:28;;;;;;;;;;;;;;;34.90;38.44;100155.56;5092067;28;19970;-72
2021/07/09 06:03:58;;;;;;;;;;;;;;;35.06;36.93;100153.88;5058324;28;19952;-75
2021/07/09 06:06:26;;;;;;;;;;;;;;;34.76;37.60;100154.22;5076140;28;20024;-73
2021/07/09 06:08:54;;;;;;;;;;;;;;;34.77;37.04;100151.19;5055805;28;19986;-74
2021/07/09 06:11:22;;;;;;;;;;;;;;;34.63;37.64;100155.38;5038209;28;20460;-73
2021/07/09 06:13:50;;;;;;;;;;;;;;;34.41;37.39;100169.16;5055785;28;20455;-74
2021/07/09 06:16:18;;;;;;;;;;;;;;;33.63;38.71;100170.69;5055845;28;19932;-74
2021/07/09 06:18:47;;;;;;;;;;;;;;;33.70;38.88;100173.31;5055877;28;19979;-73
2021/07/09 06:21:22;;;;;;;;;;;;;;;33.73;38.37;100183.88;5056131;28;19983;-73
2021/07/09 06:23:50;;;;;;;;;;;;;;;33.91;38.35;100180.94;5055658;28;20488;-73
2021/07/09 06:26:18;;;;;;;;;;;;;;;34.14;37.40;100171.69;5055393;28;20011;-72
2021/07/09 06:28:46;;;;;;;;;;;;;;;34.05;37.86;100173.16;5056038;28;19947;-72
2021/07/09 06:31:15;;;;;;;;;;;;;;;34.62;36.49;100182.25;5068747;28;19925;-70
2021/07/09 06:33:43;;;;;;;;;;;;;;;33.57;37.81;100172.47;5075855;28;20016;-71
2021/07/09 06:36:12;;;;;;;;;;;;;;;33.08;39.41;100176.63;5075528;28;19959;-71
2021/07/09 06:38:44;;;;;;;;;;;;;;;32.97;39.55;100175.56;5075459;28;19932;-69
2021/07/09 06:41:13;;;;;;;;;;;;;;;32.33;40.57;100168.13;5075262;28;19970;-76
2021/07/09 06:43:41;;;;;;;;;;;;;;;32.24;40.70;100164.03;5075410;28;19932;-74
2021/07/09 06:46:10;;;;;;;;;;;;;;;32.60;39.88;100160.28;5075357;28;19925;-74
2021/07/09 06:48:38;;;;;;;;;;;;;;;32.41;40.53;100154.84;5075383;28;19924;-72
2021/07/09 06:51:06;;;;;;;;;;;;;;;32.54;40.14;100147.44;5075195;28;19977;-73
2021/07/09 06:53:35;;;;;;;;;;;;;;;32.39;40.40;100137.69;5075395;28;19928;-77
2021/07/09 06:56:04;;;;;;;;;;;;;;;32.25;41.01;100152.75;5074859;28;19946;-82
2021/07/09 06:58:32;;;;;;;;;;;;;;;32.16;40.56;100146.72;5075446;28;20011;-70
2021/07/09 07:01:00;;;;;;;;;;;;;;;32.07;40.55;100147.31;5074975;28;19928;-71
2021/07/09 07:03:28;;;;;;;;;;;;;;;31.88;41.41;100143.78;5075190;28;20023;-73
2021/07/09 07:05:56;;;;;;;;;;;;;;;31.77;41.74;100148.16;5074837;28;20015;-73
2021/07/09 07:08:25;;;;;;;;;;;;;;;31.69;42.09;100150.38;5074825;28;19986;-79
2021/07/09 07:10:55;;;;;;;;;;;;;;;31.45;42.48;100155.75;5074874;28;19925;-81
2021/07/09 07:13:24;;;;;;;;;;;;;;;31.13;43.38;100166.06;5075400;28;19924;-82
2021/07/09 07:15:56;;;;;;;;;;;;;;;30.56;43.98;100161.72;5074790;28;19960;-82
2021/07/09 07:18:25;;;;;;;;;;;;;;;30.17;45.16;100178.31;5075054;28;20328;-79
2021/07/09 07:20:53;;;;;;;;;;;;;;;29.90;45.65;100196.84;5074636;28;20369;-81
2021/07/09 07:23:22;;;;;;;;;;;;;;;29.86;46.78;100184.59;5074504;28;19925;-81
2021/07/09 07:25:51;;;;;;;;;;;;;;;29.76;48.06;100180.66;5074946;28;19929;-79
2021/07/09 07:28:21;;;;;;;;;;;;;;;28.91;58.53;100161.44;5074669;28;19925;-82
2021/07/09 07:31:07;;;;;;;;;;;;;;;28.56;57.19;100155.31;5074433;28;20003;-82
2021/07/09 07:33:36;;;;;;;;;;;;;;;28.29;59.31;100165.47;5074464;28;20301;-82
2021/07/09 07:36:19;;;;;;;;;;;;;;;27.83;61.18;100170.81;5074851;28;19931;-82
2021/07/09 07:38:47;;;;;;;;;;;;;;;27.41;65.50;100170.00;5073692;28;19936;-82
2021/07/09 07:41:16;;;;;;;;;;;;;;;27.54;62.63;100163.72;5074072;28;19954;-82
2021/07/09 07:43:46;;;;;;;;;;;;;;;27.63;61.49;100170.72;5074342;28;19970;-82
2021/07/09 07:46:15;;;;;;;;;;;;;;;27.32;62.68;100163.00;5074622;28;19931;-82
2021/07/09 07:48:43;;;;;;;;;;;;;;;27.18;66.22;100167.56;5074594;28;19925;-82
2021/07/09 07:51:12;;;;;;;;;;;;;;;27.07;66.39;100177.19;5074290;28;19990;-82
2021/07/09 07:53:40;;;;;;;;;;;;;;;26.99;66.20;100157.28;5075657;28;20262;-83
2021/07/09 07:56:09;;;;;;;;;;;;;;;26.76;64.88;100163.91;5074113;28;20340;-83
2021/07/09 07:58:37;;;;;;;;;;;;;;;26.79;69.21;100165.38;5074154;28;19975;-83
2021/07/09 08:01:07;;;;;;;;;;;;;;;26.82;66.77;100173.19;5074044;28;20289;-83
2021/07/09 08:03:35;;;;;;;;;;;;;;;26.76;65.50;100163.06;5074058;28;19971;-83
2021/07/09 08:06:03;;;;;;;;;;;;;;;26.56;65.63;100151.97;5073907;28;19925;-83
2021/07/09 08:08:31;;;;;;;;;;;;;;;26.56;67.76;100153.84;5073897;28;19925;-83
2021/07/09 08:11:00;;;;;;;;;;;;;;;26.52;69.13;100159.69;5073661;28;20011;-81
2021/07/09 08:13:28;;;;;;;;;;;;;;;26.45;67.79;100160.72;5073852;28;19971;-82
2021/07/09 08:15:56;;;;;;;;;;;;;;;26.46;68.65;100165.13;5073946;28;19924;-82
2021/07/09 08:18:26;;;;;;;;;;;;;;;26.61;68.23;100165.03;5074071;28;19932;-81
2021/07/09 08:20:54;;;;;;;;;;;;;;;26.65;67.31;100155.41;5073700;28;19970;-82
2021/07/09 08:23:26;;;;;;;;;;;;;;;26.71;67.63;100154.56;5073761;28;19970;-83
2021/07/09 08:25:54;;;;;;;;;;;;;;;26.69;66.20;100156.66;5073652;28;19924;-83
2021/07/09 08:28:22;;;;;;;;;;;;;;;26.81;67.25;100160.53;5073558;28;20278;-83
2021/07/09 08:30:50;;;;;;;;;;;;;;;26.61;66.40;100157.66;5073782;28;20351;-83
2021/07/09 08:33:18;;;;;;;;;;;;;;;26.67;66.82;100169.72;5073397;28;19924;-83
2021/07/09 08:35:48;;;;;;;;;;;;;;;26.62;67.62;100183.97;5073995;28;19931;-83
2021/07/09 08:38:16;;;;;;;;;;;;;;;26.66;68.13;100200.84;5073648;28;19970;-83
2021/07/09 08:40:44;;;;;;;;;;;;;;;26.66;69.09;100196.22;5073644;28;20270;-83
2021/07/09 08:43:28;;;;;;;;;;;;;;;26.68;69.12;100210.53;5073802;28;19924;-83
2021/07/09 08:45:56;;;;;;;;;;;;;;;26.63;69.06;100218.47;5089461;28;20281;-83
2021/07/09 08:48:25;;;;;;;;;;;;;;;26.64;68.43;100222.94;5073159;28;20328;-83
2021/07/09 08:50:59;;;;;;;;;;;;;;;26.69;67.86;100217.72;5073193;28;19925;-83
2021/07/09 08:53:27;;;;;;;;;;;;;;;26.99;68.62;100220.25;5073425;28;19951;-84
2021/07/09 08:55:55;;;;;;;;;;;;;;;27.23;67.78;100229.94;5073413;28;19955;-82
2021/07/09 08:58:24;;;;;;;;;;;;;;;27.49;66.13;100231.97;5073136;28;20436;-83
2021/07/09 09:00:52;;;;;;;;;;;;;;;27.70;65.63;100223.69;5073538;28;19928;-84
2021/07/09 09:03:23;;;;;;;;;;;;;;;27.90;65.03;100227.34;5073162;28;20443;-84
2021/07/09 09:05:51;;;;;;;;;;;;;;;28.44;63.99;100233.81;5073522;28;19924;-83
2021/07/09 09:08:21;;;;;;;;;;;;;;;28.87;61.75;100225.22;5072963;28;19924;-84
2021/07/09 09:10:50;;;;;;;;;;;;;;;29.41;58.46;100233.16;5073471;28;19986;-82
2021/07/09 09:13:23;;;;;;;;;;;;;;;29.70;58.85;100222.72;5073043;28;20014;-82
2021/07/09 09:16:01;;;;;;;;;;;;;;;30.11;56.26;100228.72;5073105;28;19928;-84
2021/07/09 09:18:34;;;;;;;;;;;;;;;30.25;55.73;100225.88;5073574;28;20365;-83
2021/07/09 09:21:03;;;;;;;;;;;;;;;30.13;53.50;100231.25;5089042;28;20027;-82
2021/07/09 09:23:33;;;;;;;;;;;;;;;30.14;53.79;100220.00;5073436;28;19963;-83
2021/07/09 09:26:01;;;;;;;;;;;;;;;30.11;54.32;100225.97;5073104;28;19987;-82
2021/07/09 09:28:35;;;;;;;;;;;;;;;30.11;53.26;100228.72;5072918;28;19924;-82
2021/07/09 09:31:03;;;;;;;;;;;;;;;30.01;53.63;100242.03;5073377;28;19935;-83
2021/07/09 09:33:32;;;;;;;;;;;;;;;29.60;53.85;100250.69;5073275;28;19928;-82
2021/07/09 09:36:05;;;;;;;;;;;;;;;29.21;54.98;100243.34;5088954;28;19930;-83
2021/07/09 09:38:34;;;;;;;;;;;;;;;28.99;56.78;100254.56;5073132;28;20353;-83
2021/07/09 09:41:05;;;;;;;;;;;;;;;28.68;59.15;100257.09;5072979;28;20435;-83
2021/07/09 09:43:34;;;;;;;;;;;;;;;28.24;61.02;100220.88;5073210;28;20023;-81
2021/07/09 09:46:04;;;;;;;;;;;;;;;28.18;61.71;100202.53;5073120;28;19928;-83
2021/07/09 09:48:41;;;;;;;;;;;;;;;28.05;64.50;100196.16;5072823;28;20385;-82
2021/07/09 09:51:29;;;;;;;;;;;;;;;27.90;64.37;100178.00;5072574;28;19924;-84
2021/07/09 09:53:59;;;;;;;;;;;;;;;27.87;65.00;100172.09;5072787;28;19984;-81
2021/07/09 09:56:38;;;;;;;;;;;;;;;27.81;64.50;100183.88;5073269;28;19977;-82
2021/07/09 09:59:17;;;;;;;;;;;;;;;27.75;65.10;100180.06;5072497;28;19925;-82
2021/07/09 10:01:49;;;;;;;;;;;;;;;27.58;66.57;100162.25;5073935;28;19932;-81
2021/07/09 10:04:17;;;;;;;;;;;;;;;27.43;67.59;100121.34;5076414;28;20300;-82
2021/07/09 10:06:45;;;;;;;;;;;;;;;26.56;70.83;100049.91;5076591;28;19924;-82
2021/07/09 10:09:15;;;;;;;;;;;;;;;26.09;73.32;100032.28;5076019;28;19970;-83
2021/07/09 10:11:43;;;;;;;;;;;;;;;26.21;70.47;100077.16;5058838;28;20374;-83
2021/07/09 10:14:12;;;;;;;;;;;;;;;26.36;69.18;100083.41;5075904;28;19925;-83
2021/07/09 10:16:41;;;;;;;;;;;;;;;26.48;67.48;100079.09;5076309;28;19925;-82
2021/07/09 10:19:10;;;;;;;;;;;;;;;26.57;69.46;100103.56;5091631;28;20032;-83
2021/07/09 10:21:39;;;;;;;;;;;;;;;26.68;70.55;100106.59;5075859;28;19931;-83
2021/07/09 10:24:08;;;;;;;;;;;;;;;26.77;70.52;100096.34;5076254;28;19925;-83
2021/07/09 10:26:41;;;;;;;;;;;;;;;26.85;71.05;100095.34;5076064;28;19924;-83
2021/07/09 10:29:10;;;;;;;;;;;;;;;26.97;69.76;100107.41;5076005;28;19925;-83
2021/07/09 10:31:38;;;;;;;;;;;;;;;27.23;66.06;100099.34;5092198;28;19925;-81
2021/07/09 10:34:24;;;;;;;;;;;;;;;27.44;63.17;100101.13;5075723;28;19924;-82
2021/07/09 10:36:53;;;;;;;;;;;;;;;27.37;66.72;100112.03;5075719;28;19956;-83
2021/07/09 10:39:31;;;;;;;;;;;;;;;27.81;64.05;100112.63;5075759;28;20373;-83
2021/07/09 10:42:13;;;;;;;;;;;;;;;28.10;66.98;100103.19;5057395;28;20274;-82
2021/07/09 10:44:56;;;;;;;;;;;;;;;28.40;67.95;100120.94;5075591;28;20360;-82
2021/07/09 10:47:23;;;;;;;;;;;;;;;28.79;66.18;100127.44;5075395;28;19925;-82
2021/07/09 10:49:57;;;;;;;;;;;;;;;28.95;64.56;100138.00;5075387;28;19951;-82
2021/07/09 10:52:49;;;;;;;;;;;;;;;29.17;62.03;100124.84;5057832;28;19930;-82
2021/07/09 10:55:41;;;;;;;;;;;;;;;29.46;58.19;100120.72;5065222;28;20003;-82
2021/07/09 10:58:19;;;;;;;;;;;;;;;29.64;58.62;100131.88;5072649;28;20043;-82
2021/07/09 11:00:48;;;;;;;;;;;;;;;29.63;59.12;100141.19;5075452;28;19974;-82
2021/07/09 11:03:23;;;;;;;;;;;;;;;29.70;57.52;100143.03;5075421;28;19925;-83
2021/07/09 11:05:57;;;;;;;;;;;;;;;29.80;60.26;100146.13;5075270;28;20024;-83
2021/07/09 11:08:39;;;;;;;;;;;;;;;29.84;57.60;100152.91;5074674;28;19924;-82
2021/07/09 11:11:12;;;;;;;;;;;;;;;29.97;57.85;100163.81;5074757;28;19924;-83
2021/07/09 11:13:54;;;;;;;;;;;;;;;30.10;56.73;100162.91;5075073;28;20298;-83
2021/07/09 11:16:26;;;;;;;;;;;;;;;29.73;56.80;100164.59;5074779;28;20373;-83
2021/07/09 11:19:03;;;;;;;;;;;;;;;29.76;58.40;100166.91;5075399;28;19931;-83
2021/07/09 11:21:50;;;;;;;;;;;;;;;29.79;57.31;100167.28;5090706;28;20395;-83
2021/07/09 11:24:24;;;;;;;;;;;;;;;29.72;57.64;100168.38;5074814;28;19928;-83
2021/07/09 11:26:59;;;;;;;;;;;;;;;29.69;58.27;100172.41;5075384;28;19928;-83
2021/07/09 11:29:34;;;;;;;;;;;;;;;29.39;58.98;100174.84;5074918;28;19998;-83
2021/07/09 11:32:03;;;;;;;;;;;;;;;29.35;59.51;100160.72;5074928;28;20344;-84
2021/07/09 11:34:33;;;;;;;;;;;;;;;29.36;57.82;100145.06;5074832;28;20363;-83
2021/07/09 11:37:04;;;;;;;;;;;;;;;29.34;57.07;100114.22;5074727;28;20380;-83
2021/07/09 11:39:33;;;;;;;;;;;;;;;29.54;55.46;100097.69;5074583;28;20382;-82
2021/07/09 11:42:05;;;;;;;;;;;;;;;29.63;57.17;100097.19;5075030;28;19929;-83
2021/07/09 11:44:36;;;;;;;;;;;;;;;29.54;57.26;100084.78;5074769;28;19932;-83
2021/07/09 11:47:07;;;;;;;;;;;;;;;29.65;55.93;100099.72;5074657;28;20022;-83
2021/07/09 11:49:36;;;;;;;;;;;;;;;29.71;58.83;100098.81;5074080;28;19974;-82
2021/07/09 11:52:06;;;;;;;;;;;;;;;29.67;57.89;100107.75;5074283;28;20373;-83
2021/07/09 11:54:36;;;;;;;;;;;;;;;29.71;57.60;100119.97;5073632;28;19933;-83
2021/07/09 11:57:08;;;;;;;;;;;;;;;29.79;57.66;100122.47;5089975;28;19933;-83
2021/07/09 11:59:39;;;;;;;;;;;;;;;29.86;58.20;100107.63;5073923;28;20369;-83
2021/07/09 12:02:09;;;;;;;;;;;;;;;30.13;57.56;100116.56;5074074;28;19967;-83
2021/07/09 12:04:38;;;;;;;;;;;;;;;30.36;55.18;100115.94;5073728;28;19981;-83
2021/07/09 12:07:29;;;;;;;;;;;;;;;30.67;54.95;100116.97;5074084;28;19970;-82
2021/07/09 12:10:03;;;;;;;;;;;;;;;30.83;53.86;100113.63;5074054;28;19928;-82
2021/07/09 12:12:32;;;;;;;;;;;;;;;31.19;54.20;100115.56;5073780;28;20300;-83
2021/07/09 12:15:14;;;;;;;;;;;;;;;31.27;51.88;100115.28;5073731;28;19994;-83
2021/07/09 12:17:43;;;;;;;;;;;;;;;31.36;52.45;100114.94;5073526;28;20373;-83
2021/07/09 12:20:13;;;;;;;;;;;;;;;31.31;50.88;100111.00;5073572;28;20301;-83
2021/07/09 12:22:42;;;;;;;;;;;;;;;31.30;49.42;100109.31;5073756;28;19924;-82
2021/07/09 12:25:13;;;;;;;;;;;;;;;31.23;49.46;100114.06;5073102;28;19986;-83
2021/07/09 12:27:41;;;;;;;;;;;;;;;31.02;50.44;100104.31;5074086;28;20390;-83
2021/07/09 12:30:13;;;;;;;;;;;;;;;31.22;49.09;100095.00;5089699;28;20384;-82
2021/07/09 12:32:52;;;;;;;;;;;;;;;31.36;48.75;100079.97;5073670;28;19946;-82
2021/07/09 12:35:22;;;;;;;;;;;;;;;31.30;47.42;100084.50;5073375;28;19928;-83
2021/07/09 12:38:00;;;;;;;;;;;;;;;31.34;47.84;100079.38;5073750;28;19967;-83
2021/07/09 12:40:30;;;;;;;;;;;;;;;31.45;47.90;100084.09;5073536;28;19931;-83
2021/07/09 12:43:15;;;;;;;;;;;;;;;31.66;48.70;100079.16;5089017;28;19925;-82
2021/07/09 12:45:53;;;;;;;;;;;;;;;31.75;46.99;100064.84;5066699;28;19925;-81
2021/07/09 12:48:34;;;;;;;;;;;;;;;31.71;46.02;100080.13;5073477;28;19924;-83
2021/07/09 12:51:02;;;;;;;;;;;;;;;31.79;45.63;100070.72;5089355;28;19931;-82